Time;durP1;ratioP1;P1;durP2;ratioP2;P2;SDS_P1;SDS_P2;PMS_P1;PMS_P2;Temp;Humidity;BMP_temperature;BMP_pressure;BME280_temperature;BME280_humidity;BME280_pressure;Samples;Min_cycle;Max_cycle;Signal;HPM_P1;HPM_P2
2021/07/02 00:00:57;;;;;;;4.10;3.90;;;;;;;17.04;78.95;100397.19;5049658;57;1138756;-77
2021/07/02 00:06:05;;;;;;;4.77;4.37;;;;;;;17.05;79.00;100399.36;5055554;57;1138607;-82
2021/07/02 00:11:09;;;;;;;5.77;5.07;;;;;;;17.02;79.11;100405.87;5061169;57;1138788;-82
2021/07/02 00:16:15;;;;;;;5.53;4.43;;;;;;;16.95;79.51;100406.70;5076986;57;1138686;-83
2021/07/02 00:21:20;;;;;;;6.10;5.33;;;;;;;16.91;79.63;100406.17;5076807;57;1138597;-85
2021/07/02 00:26:26;;;;;;;4.97;4.47;;;;;;;16.94;79.81;100407.69;5077060;57;1138612;-80
2021/07/02 00:31:32;;;;;;;5.33;4.70;;;;;;;16.93;79.84;100398.84;5077141;57;1138596;-82
2021/07/02 00:36:37;;;;;;;7.00;6.10;;;;;;;16.94;79.80;100397.01;5082607;57;1138818;-78
2021/07/02 00:41:43;;;;;;;7.13;6.03;;;;;;;16.96;79.74;100399.02;5084719;57;1139118;-78
2021/07/02 00:46:49;;;;;;;7.10;6.28;;;;;;;16.97;79.84;100397.49;5084629;57;1138719;-84
2021/07/02 00:51:55;;;;;;;5.95;5.35;;;;;;;16.93;79.99;100392.16;5084554;57;1138752;-84
2021/07/02 00:57:03;;;;;;;8.93;7.50;;;;;;;16.90;80.16;100389.81;5084608;57;1138816;-81
2021/07/02 01:02:10;;;;;;;7.97;7.10;;;;;;;16.89;80.25;100393.48;5083810;57;1138856;-82
2021/07/02 01:07:18;;;;;;;7.60;6.83;;;;;;;16.86;80.33;100387.13;5076792;57;1138807;-82
2021/07/02 01:12:24;;;;;;;6.13;5.63;;;;;;;16.90;80.37;100383.13;5076674;57;1138725;-80
2021/07/02 01:17:31;;;;;;;6.87;6.17;;;;;;;16.90;80.53;100390.31;5086415;57;1138683;-79
2021/07/02 01:22:37;;;;;;;6.00;5.45;;;;;;;16.84;80.52;100381.94;5067223;57;1138587;-80
2021/07/02 01:27:43;;;;;;;8.48;6.30;;;;;;;16.88;80.53;100386.47;4960984;58;1138765;-80
2021/07/02 01:32:50;;;;;;;10.90;7.72;;;;;;;16.87;80.71;100389.63;5082336;57;1138742;-82
2021/07/02 01:37:56;;;;;;;10.67;9.50;;;;;;;16.85;80.87;100384.11;4999133;58;1140793;-82
2021/07/02 01:43:05;;;;;;;13.97;11.67;;;;;;;16.78;81.17;100387.95;5082078;57;1140863;-80
2021/07/02 01:48:13;;;;;;;16.00;11.00;;;;;;;16.77;81.53;100391.62;5081671;57;1142962;-78
2021/07/02 01:53:19;;;;;;;15.43;12.03;;;;;;;16.72;81.67;100397.09;5082004;57;1142780;-85
2021/07/02 01:58:26;;;;;;;11.73;10.53;;;;;;;16.71;81.79;100396.25;5081930;57;1142940;-80
2021/07/02 02:03:34;;;;;;;13.70;9.97;;;;;;;16.73;81.94;100393.42;5018692;57;1142908;-80
2021/07/02 02:08:40;;;;;;;11.95;10.25;;;;;;;16.76;82.05;100383.77;4936900;58;1140758;-86
2021/07/02 02:13:47;;;;;;;16.12;11.12;;;;;;;16.70;82.26;100374.55;4994571;58;1142880;-81
2021/07/02 02:18:54;;;;;;;14.83;10.33;;;;;;;16.68;82.66;100370.36;4993702;58;1143004;-83
2021/07/02 02:24:00;;;;;;;15.67;10.50;;;;;;;16.67;82.67;100375.36;4993633;58;1143018;-85
2021/07/02 02:29:07;;;;;;;13.17;9.53;;;;;;;16.66;82.94;100366.52;4993479;58;1142965;-80
2021/07/02 02:34:13;;;;;;;10.17;9.20;;;;;;;16.65;83.26;100364.84;4993830;58;1140676;-81
2021/07/02 02:39:20;;;;;;;16.57;10.47;;;;;;;16.63;83.44;100371.37;4993791;58;1140823;-80
2021/07/02 02:44:26;;;;;;;12.93;10.33;;;;;;;16.65;83.49;100365.38;4993548;58;1142760;-78
2021/07/02 02:49:33;;;;;;;12.73;10.83;;;;;;;16.64;83.62;100369.04;4980762;58;1142797;-80
2021/07/02 02:54:39;;;;;;;11.50;9.80;;;;;;;16.61;83.77;100374.66;4979271;58;1142832;-86
2021/07/02 02:59:44;;;;;;;15.00;10.93;;;;;;;16.62;83.82;100375.84;5006235;57;1140957;-81
2021/07/02 03:04:54;;;;;;;12.55;10.18;;;;;;;16.65;83.71;100384.06;4991551;58;1142867;-86
2021/07/02 03:10:00;;;;;;;15.33;11.83;;;;;;;16.71;83.63;100387.41;4951638;58;1142891;-84
2021/07/02 03:15:08;;;;;;;16.30;10.63;;;;;;;16.73;83.57;100390.75;4907683;59;1142891;-79
2021/07/02 03:20:15;;;;;;;13.57;11.80;;;;;;;16.75;83.55;100382.92;4943877;57;1142945;-83
2021/07/02 03:25:20;;;;;;;14.07;11.80;;;;;;;16.71;83.68;100380.73;4995176;57;1142785;-81
2021/07/02 03:30:27;;;;;;;19.37;12.03;;;;;;;16.69;83.78;100378.22;4997791;58;1142831;-84
2021/07/02 03:35:34;;;;;;;14.83;11.53;;;;;;;16.71;84.08;100380.73;4984253;58;1142811;-82
2021/07/02 03:40:40;;;;;;;11.93;9.88;;;;;;;16.61;83.83;100371.99;4951304;57;1142866;-86
2021/07/02 03:45:47;;;;;;;10.65;8.15;;;;;;;16.72;84.05;100389.92;4998442;57;1140689;-84
2021/07/02 03:50:54;;;;;;;15.40;11.00;;;;;;;16.73;84.33;100386.25;4997510;58;1140642;-85
2021/07/02 03:56:01;;;;;;;16.23;12.90;;;;;;;16.68;84.18;100395.23;4997676;58;1143170;-84
2021/07/02 04:01:08;;;;;;;14.00;11.67;;;;;;;16.67;84.36;100401.58;4997931;58;1142850;-85
2021/07/02 04:06:14;;;;;;;13.00;11.53;;;;;;;16.67;84.48;100396.23;5057905;56;1142818;-79
2021/07/02 04:11:19;;;;;;;13.47;11.40;;;;;;;16.69;84.55;100396.91;5080723;57;1143070;-81
2021/07/02 04:16:25;;;;;;;18.83;11.17;;;;;;;16.74;84.60;100402.61;5079182;57;1142963;-85
2021/07/02 04:21:31;;;;;;;16.73;10.57;;;;;;;16.82;84.51;100405.80;5068796;57;1142861;-81
2021/07/02 04:26:36;;;;;;;12.77;11.47;;;;;;;16.83;84.78;100403.47;5069352;57;1142770;-82
2021/07/02 04:31:42;;;;;;;17.23;11.68;;;;;;;16.86;84.57;100416.01;5069882;57;1142824;-83
2021/07/02 04:36:48;;;;;;;10.80;9.70;;;;;;;16.91;84.48;100410.69;5070223;57;1142804;-80
2021/07/02 04:41:54;;;;;;;14.83;11.73;;;;;;;16.91;84.50;100412.02;5069866;57;1140672;-80
2021/07/02 04:47:00;;;;;;;14.03;10.57;;;;;;;16.88;84.49;100415.34;5069341;57;1142697;-83
2021/07/02 04:52:06;;;;;;;12.97;10.10;;;;;;;16.91;84.61;100417.36;5069205;57;1142743;-87
2021/07/02 04:57:11;;;;;;;14.27;10.87;;;;;;;16.90;84.53;100417.02;5068886;57;1142758;-80
2021/07/02 05:02:18;;;;;;;15.70;10.20;;;;;;;16.92;84.60;100422.55;5057005;57;1142928;-79
2021/07/02 05:07:25;;;;;;;18.67;12.57;;;;;;;16.92;84.54;100419.87;4969030;58;1142728;-81
2021/07/02 05:12:32;;;;;;;17.37;10.20;;;;;;;16.94;84.56;100419.72;4969218;58;1142928;-88
2021/07/02 05:17:39;;;;;;;12.93;10.53;;;;;;;16.94;84.57;100423.72;4969153;58;1142896;-81
2021/07/02 05:22:45;;;;;;;18.10;11.93;;;;;;;16.96;84.75;100425.20;4969134;58;1142805;-84
2021/07/02 05:27:51;;;;;;;17.85;10.45;;;;;;;17.01;84.72;100424.23;4968975;58;1142841;-79
2021/07/02 05:32:56;;;;;;;15.93;10.70;;;;;;;17.09;84.77;100428.78;4915790;58;1142780;-87
2021/07/02 05:38:02;;;;;;;18.97;10.87;;;;;;;17.13;84.60;100420.75;4907569;58;1142771;-85
2021/07/02 05:43:07;;;;;;;16.57;10.73;;;;;;;17.15;84.43;100421.42;4990999;58;1142997;-78
2021/07/02 05:48:17;;;;;;;15.30;10.27;;;;;;;17.15;84.40;100426.27;4988354;57;1142827;-84
2021/07/02 05:53:22;;;;;;;12.03;8.43;;;;;;;17.21;84.61;100420.28;4901142;58;1142837;-77
2021/07/02 05:58:28;;;;;;;11.87;8.33;;;;;;;17.23;84.46;100430.81;4967744;58;1140688;-79
2021/07/02 06:03:34;;;;;;;14.30;9.87;;;;;;;17.22;84.53;100429.98;5000050;57;1140712;-78
2021/07/02 06:08:40;;;;;;;23.67;9.70;;;;;;;17.26;84.57;100426.98;5050856;57;1140649;-83
2021/07/02 06:13:45;;;;;;;11.10;8.58;;;;;;;17.31;84.52;100430.81;5050962;57;1140823;-84
2021/07/02 06:18:51;;;;;;;12.63;9.08;;;;;;;17.30;84.31;100426.47;5050975;57;1140695;-85
2021/07/02 06:23:57;;;;;;;15.63;9.83;;;;;;;17.30;84.55;100429.14;5006727;57;1140618;-84
2021/07/02 06:29:03;;;;;;;16.00;10.07;;;;;;;17.30;84.48;100430.48;5000112;57;1140801;-83
2021/07/02 06:34:08;;;;;;;26.57;10.83;;;;;;;17.29;84.45;100436.82;5000509;57;1142958;-85
2021/07/02 06:39:14;;;;;;;14.33;9.30;;;;;;;17.35;84.60;100447.37;5000240;57;1142831;-82
2021/07/02 06:44:20;;;;;;;18.40;10.37;;;;;;;17.31;84.50;100446.85;4999703;57;1140857;-82
2021/07/02 06:49:25;;;;;;;12.53;9.33;;;;;;;17.30;84.49;100439.83;4999181;57;1142942;-83
2021/07/02 06:54:31;;;;;;;13.23;9.00;;;;;;;17.35;84.48;100448.20;4999625;57;1140985;-83
2021/07/02 06:59:38;;;;;;;12.63;9.23;;;;;;;17.38;84.51;100456.41;4995778;57;1140899;-83
2021/07/02 07:04:44;;;;;;;15.95;11.28;;;;;;;17.34;84.36;100438.52;4951522;57;1140840;-84
2021/07/02 07:09:49;;;;;;;20.10;11.65;;;;;;;17.41;84.47;100449.39;4920401;58;1143009;-82
2021/07/02 07:14:55;;;;;;;11.25;9.20;;;;;;;17.44;84.45;100447.20;4920888;58;1142970;-83
2021/07/02 07:20:02;;;;;;;17.77;10.70;;;;;;;17.47;84.45;100448.22;4979816;57;1140763;-83
2021/07/02 07:25:08;;;;;;;13.10;9.40;;;;;;;17.52;84.56;100453.08;4997610;58;1142863;-83
2021/07/02 07:30:15;;;;;;;10.37;7.60;;;;;;;17.56;84.34;100462.45;4997367;58;1140933;-89
2021/07/02 07:35:27;;;;;;;12.93;9.43;;;;;;;17.57;84.33;100462.77;4989920;57;1140699;-82
2021/07/02 07:40:32;;;;;;;15.57;9.60;;;;;;;17.53;84.27;100464.11;4992925;57;1140982;-82
2021/07/02 07:45:38;;;;;;;11.27;7.60;;;;;;;17.55;84.58;100469.64;4998789;57;1150698;-81
2021/07/02 07:50:47;;;;;;;15.18;9.98;;;;;;;17.61;84.48;100474.80;4996249;57;1140874;-85
2021/07/02 07:55:52;;;;;;;15.50;11.30;;;;;;;17.67;84.43;100482.72;4991746;57;1140909;-81
2021/07/02 08:00:57;;;;;;;18.83;8.50;;;;;;;17.74;84.26;100481.03;4997119;57;1142804;-79
2021/07/02 08:06:03;;;;;;;17.80;8.97;;;;;;;17.75;84.05;100483.55;4997360;58;1140753;-83
2021/07/02 08:11:09;;;;;;;18.93;9.67;;;;;;;17.79;83.86;100481.38;4997630;58;1140778;-83
2021/07/02 08:16:15;;;;;;;13.73;9.40;;;;;;;17.81;84.01;100490.08;4997689;57;1141017;-84
2021/07/02 08:21:21;;;;;;;18.43;11.47;;;;;;;17.80;83.96;100494.59;4998086;57;1140706;-82
2021/07/02 08:26:27;;;;;;;13.80;10.70;;;;;;;17.80;83.98;100501.78;4998917;58;1143114;-87
2021/07/02 08:31:33;;;;;;;15.03;11.00;;;;;;;17.83;84.00;100504.97;4990331;56;1142960;-82
2021/07/02 08:36:39;;;;;;;18.63;13.67;;;;;;;17.85;83.62;100497.62;5051451;57;1147312;-83
2021/07/02 08:41:46;;;;;;;15.65;9.30;;;;;;;17.88;83.91;100493.75;4966076;57;1142991;-84
2021/07/02 08:46:53;;;;;;;24.92;10.23;;;;;;;17.96;83.64;100499.62;4995063;58;1140785;-84
2021/07/02 08:51:59;;;;;;;17.32;11.08;;;;;;;18.03;83.77;100502.78;4999791;58;1142741;-85
2021/07/02 08:57:05;;;;;;;13.62;6.67;;;;;;;18.09;83.51;100510.16;4999828;58;1142799;-85
2021/07/02 09:02:16;;;;;;;14.28;8.95;;;;;;;18.16;83.32;100507.16;4999327;58;1140690;-81
2021/07/02 09:07:23;;;;;;;13.60;8.53;;;;;;;18.19;82.79;100505.95;4998227;58;1141018;-83
2021/07/02 09:12:34;;;;;;;13.20;9.10;;;;;;;18.18;82.84;100502.97;4999505;58;1140763;-85
2021/07/02 09:17:53;;;;;;;12.47;8.73;;;;;;;18.20;82.64;100500.94;4967035;58;1140905;-86
2021/07/02 09:23:02;;;;;;;7.80;7.03;;;;;;;18.14;82.72;100486.41;4953096;57;1140752;-83
2021/07/02 09:28:13;;;;;;;14.45;9.28;;;;;;;18.32;82.89;100491.58;4997600;57;1138589;-83
2021/07/02 09:33:26;;;;;;;11.17;7.60;;;;;;;18.37;82.39;100493.72;4989705;57;1140604;-85
2021/07/02 09:38:40;;;;;;;14.28;8.68;;;;;;;18.41;82.23;100493.73;4922792;58;1140708;-82
2021/07/02 09:43:46;;;;;;;10.93;8.95;;;;;;;18.37;82.14;100497.74;4929669;58;1140775;-83
2021/07/02 09:48:55;;;;;;;13.18;8.58;;;;;;;18.42;82.31;100492.22;4926460;57;1141240;-82
2021/07/02 09:54:10;;;;;;;12.00;8.98;;;;;;;18.47;82.24;100495.73;4977863;57;1140882;-85
2021/07/02 09:59:19;;;;;;;12.08;7.80;;;;;;;18.53;82.08;100493.70;4985594;56;1140756;-82
2021/07/02 10:04:25;;;;;;;15.48;8.60;;;;;;;18.55;81.69;100502.40;4917489;57;1140782;-82
2021/07/02 10:09:31;;;;;;;11.33;7.97;;;;;;;18.55;81.86;100509.94;4916735;58;1140718;-84
2021/07/02 10:14:37;;;;;;;12.40;8.85;;;;;;;18.54;81.71;100506.92;4917754;58;1140663;-83
2021/07/02 10:19:44;;;;;;;9.13;7.45;;;;;;;18.49;81.69;100511.10;4917839;58;1143955;-82
2021/07/02 10:24:54;;;;;;;12.65;8.63;;;;;;;18.53;82.14;100507.92;4918245;58;1138570;-79
2021/07/02 10:30:01;;;;;;;15.58;8.58;;;;;;;18.63;81.62;100513.64;4954546;58;1140671;-80
2021/07/02 10:35:11;;;;;;;10.50;7.72;;;;;;;18.67;81.33;100513.11;4968467;58;1140684;-79
2021/07/02 10:40:32;;;;;;;10.08;8.13;;;;;;;18.63;81.53;100515.83;4968384;58;1140808;-83
2021/07/02 10:45:45;;;;;;;14.63;5.90;;;;;;;18.67;81.59;100510.94;4968565;58;1140634;-78
2021/07/02 10:50:50;;;;;;;9.63;6.67;;;;;;;18.74;81.46;100511.94;4923876;58;1140927;-82
2021/07/02 10:55:57;;;;;;;10.38;7.10;;;;;;;18.66;81.05;100509.27;4968683;58;1138862;-83
2021/07/02 11:01:12;;;;;;;11.35;6.90;;;;;;;18.62;81.20;100510.12;4968428;58;1140738;-83
2021/07/02 11:06:39;;;;;;;8.88;6.85;;;;;;;18.58;81.31;100512.78;4978963;57;1140705;-82
2021/07/02 11:12:09;;;;;;;17.02;10.78;;;;;;;18.66;81.57;100514.62;4855429;59;1138862;-80
2021/07/02 11:17:26;;;;;;;11.28;8.60;;;;;;;18.80;81.31;100513.41;4780903;60;1142996;-82
2021/07/02 11:22:40;;;;;;;9.75;6.28;;;;;;;18.98;81.13;100499.78;4889436;59;1140826;-83
2021/07/02 11:27:51;;;;;;;10.55;6.10;;;;;;;19.12;80.87;100500.39;4829131;59;1139078;-81
2021/07/02 11:33:01;;;;;;;14.58;10.98;;;;;;;19.47;81.42;100486.12;4789138;59;1140914;-81
2021/07/02 11:38:19;;;;;;;12.33;7.20;;;;;;;19.94;81.21;100484.14;4873244;59;1142927;-81
2021/07/02 11:43:40;;;;;;;11.57;10.30;;;;;;;20.31;79.00;100491.37;4863781;59;1140763;-80
2021/07/02 11:48:49;;;;;;;8.23;5.92;;;;;;;20.56;78.81;100482.58;4907407;58;1142991;-80
2021/07/02 11:54:05;;;;;;;5.62;5.10;;;;;;;20.70;75.98;100483.59;4973832;57;1138661;-79
2021/07/02 11:59:14;;;;;;;5.65;5.10;;;;;;;20.65;75.76;100481.95;5062060;57;1138783;-79
2021/07/02 12:04:21;;;;;;;26.77;21.02;;;;;;;20.81;74.98;100481.77;4994427;57;1138853;-79
2021/07/02 12:09:28;;;;;;;39.30;19.62;;;;;;;21.16;74.31;100468.57;5033163;57;1142931;-79
2021/07/02 12:14:37;;;;;;;36.50;18.87;;;;;;;21.46;72.37;100463.97;5032881;57;1143006;-79
2021/07/02 12:19:43;;;;;;;5.25;4.75;;;;;;;21.59;72.41;100467.63;4961112;58;1143089;-80
2021/07/02 12:24:52;;;;;;;5.78;4.55;;;;;;;21.61;72.41;100463.41;4986578;57;1138659;-79
2021/07/02 12:29:59;;;;;;;10.53;4.40;;;;;;;21.78;72.88;100461.30;4987465;57;1138664;-79
2021/07/02 12:35:12;;;;;;;4.75;4.33;;;;;;;22.10;72.09;100454.88;4987299;57;1140833;-79
2021/07/02 12:40:19;;;;;;;5.60;4.83;;;;;;;22.41;68.65;100451.78;4987721;57;1138974;-79
2021/07/02 12:45:26;;;;;;;7.05;4.03;;;;;;;22.30;67.80;100446.12;4987887;57;1138782;-79
2021/07/02 12:50:38;;;;;;;7.87;4.83;;;;;;;22.32;68.48;100446.21;4987266;57;1138563;-80
2021/07/02 12:55:45;;;;;;;39.96;25.12;;;;;;;22.28;68.12;100453.05;5004934;57;1138590;-80
2021/07/02 13:00:50;;;;;;;12.83;10.10;;;;;;;22.20;68.22;100457.73;4972802;57;1142906;-79
2021/07/02 13:05:56;;;;;;;14.77;8.37;;;;;;;22.27;69.21;100443.30;4958806;58;1142782;-81
2021/07/02 13:11:05;;;;;;;9.77;4.60;;;;;;;22.58;69.68;100439.34;4968902;58;1140634;-79
2021/07/02 13:16:11;;;;;;;12.23;4.75;;;;;;;22.76;69.12;100440.48;4966326;58;1138726;-79
2021/07/02 13:21:32;;;;;;;9.90;4.92;;;;;;;22.75;68.69;100440.17;4986717;57;1140839;-81
2021/07/02 13:26:38;;;;;;;9.03;4.87;;;;;;;22.71;68.86;100435.36;4971304;58;1138586;-80
2021/07/02 13:31:56;;;;;;;13.70;4.46;;;;;;;22.77;68.43;100429.18;5023369;57;1138749;-81
2021/07/02 13:37:02;;;;;;;9.07;4.47;;;;;;;22.77;67.64;100425.14;4979671;58;1140536;-80
2021/07/02 13:42:25;;;;;;;6.90;4.12;;;;;;;22.76;66.84;100412.17;4947847;57;1139007;-79
2021/07/02 13:47:35;;;;;;;4.83;4.10;;;;;;;22.82;62.73;100405.67;4936234;58;1138747;-80
2021/07/02 13:52:41;;;;;;;4.50;4.10;;;;;;;23.03;61.89;100407.73;4917704;58;1138713;-79
2021/07/02 13:57:46;;;;;;;4.28;3.87;;;;;;;23.54;60.40;100402.35;4924767;57;1139071;-79
2021/07/02 14:02:52;;;;;;;4.50;3.70;;;;;;;23.54;60.40;100402.35;4952668;57;1138805;-83
2021/07/02 14:07:59;;;;;;;3.40;3.10;;;;;;;23.73;59.71;100417.23;4999117;57;1138534;-81
2021/07/02 14:13:05;;;;;;;4.62;2.77;;;;;;;23.77;55.67;100417.66;5072486;57;1138714;-81
2021/07/02 14:18:11;;;;;;;3.47;3.27;;;;;;;23.68;55.10;100412.95;5072035;57;1138618;-79
2021/07/02 14:23:17;;;;;;;4.05;3.75;;;;;;;23.58;57.25;100415.24;5072253;57;1138752;-81
2021/07/02 14:28:22;;;;;;;3.55;3.25;;;;;;;23.55;57.55;100410.77;5072214;57;1138586;-81
2021/07/02 14:33:28;;;;;;;3.65;3.37;;;;;;;23.51;56.34;100409.02;5073428;57;1138927;-81
2021/07/02 14:38:34;;;;;;;3.67;2.98;;;;;;;23.44;57.75;100413.53;5082049;57;1138685;-79
2021/07/02 14:43:39;;;;;;;3.30;3.00;;;;;;;23.40;56.23;100411.75;5082069;57;1138565;-82
2021/07/02 14:48:45;;;;;;;5.92;3.80;;;;;;;23.34;56.44;100405.84;5080014;57;1251774;-83
2021/07/02 14:53:51;;;;;;;4.38;2.62;;;;;;;23.32;57.18;100405.73;5082255;57;1139082;-81
2021/07/02 14:58:57;;;;;;;5.72;3.87;;;;;;;23.34;56.56;100415.80;5082032;57;1138559;-82
2021/07/02 15:04:02;;;;;;;2.37;2.20;;;;;;;23.47;56.77;100416.66;5005407;57;1138744;-81
2021/07/02 15:09:08;;;;;;;9.20;3.90;;;;;;;23.47;56.77;100416.66;4986422;58;1138634;-83
2021/07/02 15:14:14;;;;;;;13.78;2.45;;;;;;;23.66;55.67;100414.22;4986525;58;1138640;-79
2021/07/02 15:19:20;;;;;;;3.12;2.83;;;;;;;23.72;53.21;100409.33;4986074;58;1140764;-83
2021/07/02 15:24:25;;;;;;;3.65;2.62;;;;;;;23.76;54.43;100410.06;4986326;58;1138940;-84
2021/07/02 15:29:32;;;;;;;3.42;2.95;;;;;;;23.85;54.50;100406.63;4986264;58;1138721;-82
2021/07/02 15:34:39;;;;;;;5.90;4.97;;;;;;;23.84;54.33;100407.14;4987188;58;1138616;-81
2021/07/02 15:39:45;;;;;;;9.30;3.80;;;;;;;24.04;55.86;100400.39;5001762;58;1138621;-84
2021/07/02 15:44:50;;;;;;;6.40;2.80;;;;;;;24.37;56.07;100396.31;5001584;58;1138726;-80
2021/07/02 15:49:56;;;;;;;3.00;2.70;;;;;;;24.67;56.48;100390.39;5001070;58;1138683;-81
2021/07/02 15:55:02;;;;;;;5.47;2.80;;;;;;;24.89;55.91;100392.59;5002137;58;1138884;-79
2021/07/02 16:00:09;;;;;;;6.03;2.75;;;;;;;25.01;55.30;100406.30;5001985;58;1138811;-81
2021/07/02 16:05:19;;;;;;;2.58;2.37;;;;;;;24.89;55.01;100411.54;5000389;58;1138649;-84
2021/07/02 16:10:25;;;;;;;8.45;3.33;;;;;;;24.68;54.80;100404.23;4999893;58;1138592;-82
2021/07/02 16:15:31;;;;;;;2.83;2.62;;;;;;;24.51;54.77;100405.22;4999842;58;1138627;-82
2021/07/02 16:20:38;;;;;;;3.52;2.65;;;;;;;24.37;54.29;100401.72;4999725;58;1138662;-81
2021/07/02 16:25:44;;;;;;;3.33;2.83;;;;;;;24.21;54.95;100403.48;4999867;58;1138784;-83
2021/07/02 16:30:50;;;;;;;7.47;2.27;;;;;;;24.19;55.36;100401.51;4999865;58;1138893;-82
2021/07/02 16:35:55;;;;;;;3.35;2.37;;;;;;;24.17;55.43;100403.06;5000126;58;1138852;-82
2021/07/02 16:41:01;;;;;;;2.80;2.60;;;;;;;24.17;55.25;100403.06;5001912;58;1138669;-83
2021/07/02 16:46:08;;;;;;;3.90;2.90;;;;;;;24.07;55.16;100403.20;5002266;58;1138613;-83
2021/07/02 16:51:15;;;;;;;2.92;2.35;;;;;;;23.99;55.45;100394.77;5002209;58;1138782;-83
2021/07/02 16:56:21;;;;;;;7.05;2.37;;;;;;;23.91;55.71;100404.97;5002062;58;1138679;-81
2021/07/02 17:01:28;;;;;;;4.05;2.08;;;;;;;23.83;55.70;100400.63;5001728;58;1138852;-82
2021/07/02 17:06:34;;;;;;;2.65;2.40;;;;;;;23.75;56.40;100400.82;4989780;57;1138554;-82
2021/07/02 17:11:41;;;;;;;10.23;2.33;;;;;;;23.65;56.78;100410.69;5020410;57;1138763;-82
2021/07/02 17:16:47;;;;;;;9.98;3.25;;;;;;;23.61;57.67;100402.69;5084577;57;1140648;-82
2021/07/02 17:21:53;;;;;;;6.44;2.96;;;;;;;23.60;57.51;100403.72;5084912;57;1138794;-82
2021/07/02 17:26:59;;;;;;;11.25;3.00;;;;;;;23.61;57.51;100404.03;5084361;57;1138631;-82
2021/07/02 17:32:05;;;;;;;8.33;3.47;;;;;;;23.56;57.33;100412.43;5084422;57;1140802;-83
2021/07/02 17:37:11;;;;;;;6.25;4.12;;;;;;;23.57;57.54;100411.39;5084320;57;1138710;-80
2021/07/02 17:42:17;;;;;;;4.58;2.60;;;;;;;23.49;57.10;100418.64;5072085;57;1138596;-82
2021/07/02 17:47:23;;;;;;;11.83;3.62;;;;;;;23.27;57.44;100421.17;5069604;57;1138963;-82
2021/07/02 17:52:28;;;;;;;8.30;2.75;;;;;;;23.19;58.56;100422.73;5069812;57;1140728;-83
2021/07/02 17:57:34;;;;;;;5.25;3.17;;;;;;;23.10;59.31;100424.75;5069967;57;1138556;-84
2021/07/02 18:02:40;;;;;;;9.43;4.65;;;;;;;22.91;59.14;100430.94;5058398;57;1138670;-80
2021/07/02 18:07:46;;;;;;;6.92;4.65;;;;;;;22.71;59.58;100432.16;4999355;57;1138608;-82
2021/07/02 18:12:52;;;;;;;8.45;4.28;;;;;;;22.55;59.88;100437.03;5017150;57;1138725;-81
2021/07/02 18:17:58;;;;;;;5.97;3.58;;;;;;;22.46;59.70;100441.22;5084109;57;1138802;-81
2021/07/02 18:23:03;;;;;;;13.70;4.20;;;;;;;22.39;59.88;100454.36;5084834;57;1138636;-82
2021/07/02 18:28:09;;;;;;;15.35;3.58;;;;;;;22.32;59.79;100450.77;5084171;57;1140853;-83
2021/07/02 18:33:15;;;;;;;5.72;3.30;;;;;;;22.25;59.75;100452.60;5084122;57;1140737;-79
2021/07/02 18:38:21;;;;;;;3.47;3.15;;;;;;;22.17;60.09;100446.83;5084374;57;1138666;-80
2021/07/02 18:43:26;;;;;;;13.15;5.67;;;;;;;22.12;60.20;100454.69;5084272;57;1138622;-84
2021/07/02 18:48:33;;;;;;;17.12;6.17;;;;;;;22.06;60.42;100454.11;5084083;57;1140667;-81
2021/07/02 18:53:39;;;;;;;13.20;4.05;;;;;;;22.04;60.75;100456.99;5084058;57;1140703;-79
2021/07/02 18:58:44;;;;;;;10.32;5.75;;;;;;;22.00;60.83;100469.17;5084120;57;1140719;-80
2021/07/02 19:03:50;;;;;;;13.45;4.80;;;;;;;21.90;61.07;100465.13;5048878;57;1140881;-79
2021/07/02 19:08:56;;;;;;;4.06;3.32;;;;;;;21.86;61.47;100467.87;5001527;58;1140896;-84
2021/07/02 19:14:01;;;;;;;6.47;3.47;;;;;;;21.78;62.16;100480.97;5001774;58;1138656;-84
2021/07/02 19:19:09;;;;;;;10.00;3.80;;;;;;;21.78;62.16;100480.97;5001888;58;1138669;-81
2021/07/02 19:24:15;;;;;;;7.03;3.47;;;;;;;21.74;62.63;100487.76;5001522;57;1140866;-82
2021/07/02 19:29:20;;;;;;;6.22;2.20;;;;;;;21.61;63.33;100498.39;5002165;58;1138585;-82
2021/07/02 19:34:26;;;;;;;6.00;2.52;;;;;;;21.53;64.09;100506.09;5002361;57;1138626;-83
2021/07/02 19:39:32;;;;;;;3.30;2.05;;;;;;;21.56;64.48;100498.13;5002325;57;1138578;-80
2021/07/02 19:44:37;;;;;;;2.95;2.45;;;;;;;21.56;64.55;100508.89;4992251;58;1138809;-84
2021/07/02 19:49:44;;;;;;;5.20;2.45;;;;;;;21.58;64.78;100508.19;4987268;58;1138612;-82
2021/07/02 19:54:50;;;;;;;7.33;3.77;;;;;;;21.50;64.55;100522.61;4987289;58;1138793;-82
2021/07/02 19:59:55;;;;;;;7.95;3.55;;;;;;;21.39;64.71;100533.34;4987223;58;1138692;-83
2021/07/02 20:05:02;;;;;;;9.08;3.37;;;;;;;21.45;65.30;100530.92;5041559;57;1138618;-84
2021/07/02 20:10:10;;;;;;;6.72;3.77;;;;;;;21.45;65.11;100533.10;5069359;57;1138631;-83
2021/07/02 20:15:18;;;;;;;5.10;3.10;;;;;;;21.41;65.13;100524.56;5069240;57;1138665;-80
2021/07/02 20:20:23;;;;;;;7.05;2.87;;;;;;;21.37;65.40;100525.16;5069303;57;1138653;-80
2021/07/02 20:25:29;;;;;;;7.72;3.10;;;;;;;21.32;65.60;100519.50;5069329;57;1138624;-80
2021/07/02 20:30:37;;;;;;;3.02;2.72;;;;;;;21.30;66.17;100519.68;5069436;57;1138610;-82
2021/07/02 20:35:42;;;;;;;5.53;2.85;;;;;;;21.24;66.47;100516.39;5069122;57;1138811;-79
2021/07/02 20:40:51;;;;;;;9.98;2.98;;;;;;;21.17;66.71;100524.87;5069223;57;1138566;-83
2021/07/02 20:45:57;;;;;;;5.87;3.33;;;;;;;21.10;66.82;100524.45;5062896;57;1138868;-81
2021/07/02 20:51:03;;;;;;;5.10;3.60;;;;;;;21.09;67.22;100528.98;5069223;57;1138821;-82
2021/07/02 20:56:12;;;;;;;4.12;2.67;;;;;;;21.20;67.78;100516.97;5063686;57;1138786;-81
2021/07/02 21:01:18;;;;;;;3.72;2.80;;;;;;;21.26;67.78;100522.92;5069078;57;1138599;-85
2021/07/02 21:06:25;;;;;;;5.75;2.58;;;;;;;21.19;67.75;100530.94;4992421;57;1138725;-83
2021/07/02 21:11:31;;;;;;;5.05;2.77;;;;;;;21.10;67.90;100532.52;4986888;58;1138630;-82
2021/07/02 21:16:37;;;;;;;3.33;2.60;;;;;;;21.05;68.12;100534.44;4987118;58;1139065;-81
2021/07/02 21:21:43;;;;;;;5.87;2.60;;;;;;;21.08;68.47;100529.50;4987037;58;1138755;-81
2021/07/02 21:26:49;;;;;;;3.22;2.54;;;;;;;21.08;68.52;100538.11;4986895;58;1139181;-81
2021/07/02 21:31:55;;;;;;;3.08;2.80;;;;;;;20.95;68.50;100540.59;4986832;57;1138776;-81
2021/07/02 21:37:00;;;;;;;6.22;2.55;;;;;;;20.82;68.72;100534.52;4987021;58;1138808;-82
2021/07/02 21:42:06;;;;;;;11.23;3.97;;;;;;;20.76;68.92;100542.00;4986920;58;1138830;-83
2021/07/02 21:47:12;;;;;;;3.17;2.77;;;;;;;20.75;68.94;100550.25;4986887;58;1140763;-82
2021/07/02 21:52:18;;;;;;;9.00;3.40;;;;;;;20.70;68.98;100542.72;4986627;58;1138688;-82
2021/07/02 21:57:24;;;;;;;2.87;2.67;;;;;;;20.60;69.05;100551.57;4986817;58;1138714;-83
2021/07/02 22:02:30;;;;;;;3.00;2.42;;;;;;;20.48;69.19;100548.47;4987187;58;1138648;-81
2021/07/02 22:07:35;;;;;;;4.70;3.25;;;;;;;20.43;69.13;100554.08;4987122;57;1138728;-81
2021/07/02 22:12:41;;;;;;;2.98;2.50;;;;;;;20.33;69.31;100549.75;4987210;57;1138944;-80
2021/07/02 22:17:47;;;;;;;4.60;2.58;;;;;;;20.31;69.51;100546.44;4987164;57;1138937;-82
2021/07/02 22:22:54;;;;;;;6.08;2.83;;;;;;;20.28;69.45;100541.42;4983223;57;1138844;-79
2021/07/02 22:28:00;;;;;;;5.74;3.58;;;;;;;20.26;69.36;100544.79;4987206;57;1138649;-82
2021/07/02 22:33:06;;;;;;;9.18;3.40;;;;;;;20.21;69.31;100545.00;4987102;57;1138757;-83
2021/07/02 22:38:11;;;;;;;5.50;3.42;;;;;;;20.16;69.60;100546.91;4987295;57;1138727;-82
2021/07/02 22:43:16;;;;;;;4.17;2.98;;;;;;;20.16;69.67;100545.56;4987066;57;1138875;-84
2021/07/02 22:48:22;;;;;;;4.97;3.00;;;;;;;20.23;69.69;100545.66;4987290;57;1138745;-81
2021/07/02 22:53:28;;;;;;;4.87;2.72;;;;;;;20.26;69.58;100545.30;4986824;58;1138621;-83
2021/07/02 22:58:34;;;;;;;5.45;3.25;;;;;;;20.35;70.08;100554.44;4986924;58;1138721;-82
2021/07/02 23:03:39;;;;;;;8.95;3.35;;;;;;;20.47;70.08;100557.55;4987279;57;1138902;-81